Forside
METAR-TAF:

METAR-TAF

Lufthavne :

Russellville Regional Airport

Russellville, Arkansas, USA

Breddekreds: 35-15-32N, længdekreds: 093-05-36W, højde: 123 m

Aktuelle vejr

Denne rapport blev lavet for 41 minutter siden, kl. 11:53 UTC
Vind 8 kt fra østsydøst
Temperatur 6°C
Fugtighed 70%
Tryk 1017 hPa
Sigt: 16.1 km
Overskyet i en højde af 2400 ft

METAR: KRUE 221153Z AUTO 11008KT 10SM OVC024 06/01 A3002 RMK AO2 SLP163 T00610011 10067 20039 58006

Tid: 06:34 (12:34 UTC)


TAF: fraværende

Vejrobservationer og prognoser fra mere end 4000 lufthavne (METAR og TAF).

De gule og røde prikker repræsenterer de meteorologiske stationer.

Flyt musen over at se navnet på stationen.

Så klik over at se vejr observationer og prognoser.

At skifte det kort: Klik på de grønne knapper med et sort kors for at zoome ind; på den grønne knap med en bindestreg for at zoome ud; eller på de grønne pile for tilstødende kort.


METAR-TAF: